sensor_id;sensor_type;location;lat;lon;timestamp;temperature;humidity
14252;DHT22;7210;51.502;10.722;2022-09-28T00:00:04;7.70;99.90
14252;DHT22;7210;51.502;10.722;2022-09-28T00:02:38;7.60;99.90
14252;DHT22;7210;51.502;10.722;2022-09-28T00:05:05;7.50;99.90
14252;DHT22;7210;51.502;10.722;2022-09-28T00:07:33;7.40;99.90
14252;DHT22;7210;51.502;10.722;2022-09-28T00:10:00;7.40;99.90
14252;DHT22;7210;51.502;10.722;2022-09-28T00:12:27;7.30;99.90
14252;DHT22;7210;51.502;10.722;2022-09-28T00:14:56;7.30;99.90
14252;DHT22;7210;51.502;10.722;2022-09-28T00:17:24;7.30;99.90
14252;DHT22;7210;51.502;10.722;2022-09-28T00:19:51;7.40;99.90
14252;DHT22;7210;51.502;10.722;2022-09-28T00:22:18;7.40;99.90
14252;DHT22;7210;51.502;10.722;2022-09-28T00:24:46;7.40;99.90
14252;DHT22;7210;51.502;10.722;2022-09-28T00:27:13;7.50;99.90
14252;DHT22;7210;51.502;10.722;2022-09-28T00:29:44;7.40;99.90
14252;DHT22;7210;51.502;10.722;2022-09-28T00:32:12;7.40;99.90
14252;DHT22;7210;51.502;10.722;2022-09-28T00:34:46;7.50;99.90
14252;DHT22;7210;51.502;10.722;2022-09-28T00:37:14;7.50;99.90
14252;DHT22;7210;51.502;10.722;2022-09-28T00:39:41;7.50;99.90
14252;DHT22;7210;51.502;10.722;2022-09-28T00:42:12;7.50;99.90
14252;DHT22;7210;51.502;10.722;2022-09-28T00:44:43;7.60;99.90
14252;DHT22;7210;51.502;10.722;2022-09-28T00:47:32;7.60;99.90
14252;DHT22;7210;51.502;10.722;2022-09-28T00:50:11;7.60;99.90
14252;DHT22;7210;51.502;10.722;2022-09-28T00:52:46;7.50;99.90
14252;DHT22;7210;51.502;10.722;2022-09-28T00:55:21;7.50;99.90
14252;DHT22;7210;51.502;10.722;2022-09-28T00:57:57;7.50;99.90
14252;DHT22;7210;51.502;10.722;2022-09-28T01:00:28;7.50;99.90
14252;DHT22;7210;51.502;10.722;2022-09-28T01:02:55;7.50;99.90
14252;DHT22;7210;51.502;10.722;2022-09-28T01:05:26;7.50;99.90
14252;DHT22;7210;51.502;10.722;2022-09-28T01:07:54;7.50;99.90
14252;DHT22;7210;51.502;10.722;2022-09-28T01:10:22;7.50;99.90
14252;DHT22;7210;51.502;10.722;2022-09-28T01:12:49;7.50;99.90
14252;DHT22;7210;51.502;10.722;2022-09-28T01:15:17;7.50;99.90
14252;DHT22;7210;51.502;10.722;2022-09-28T01:17:58;7.50;99.90
14252;DHT22;7210;51.502;10.722;2022-09-28T01:20:50;7.60;99.90
14252;DHT22;7210;51.502;10.722;2022-09-28T01:23:57;7.50;99.90
14252;DHT22;7210;51.502;10.722;2022-09-28T01:27:06;7.50;99.90
14252;DHT22;7210;51.502;10.722;2022-09-28T01:29:44;7.60;99.90
14252;DHT22;7210;51.502;10.722;2022-09-28T01:32:25;7.60;99.90
14252;DHT22;7210;51.502;10.722;2022-09-28T01:35:04;7.60;99.90
14252;DHT22;7210;51.502;10.722;2022-09-28T01:37:40;7.70;99.90
14252;DHT22;7210;51.502;10.722;2022-09-28T01:40:11;7.70;99.90
14252;DHT22;7210;51.502;10.722;2022-09-28T01:42:44;7.70;99.90
14252;DHT22;7210;51.502;10.722;2022-09-28T01:45:17;7.70;99.90
14252;DHT22;7210;51.502;10.722;2022-09-28T01:47:50;7.70;99.90
14252;DHT22;7210;51.502;10.722;2022-09-28T01:50:26;7.80;99.90
14252;DHT22;7210;51.502;10.722;2022-09-28T01:53:03;7.80;99.90
14252;DHT22;7210;51.502;10.722;2022-09-28T01:55:38;7.80;99.90
14252;DHT22;7210;51.502;10.722;2022-09-28T01:58:15;7.70;99.90
14252;DHT22;7210;51.502;10.722;2022-09-28T02:00:55;7.70;99.90
14252;DHT22;7210;51.502;10.722;2022-09-28T02:06:23;7.60;99.90
14252;DHT22;7210;51.502;10.722;2022-09-28T02:08:59;7.60;99.90
14252;DHT22;7210;51.502;10.722;2022-09-28T02:11:44;7.60;99.90
14252;DHT22;7210;51.502;10.722;2022-09-28T02:17:33;7.60;99.90
14252;DHT22;7210;51.502;10.722;2022-09-28T02:20:00;7.60;99.90
14252;DHT22;7210;51.502;10.722;2022-09-28T02:22:32;7.60;99.90
14252;DHT22;7210;51.502;10.722;2022-09-28T02:25:08;7.60;99.90
14252;DHT22;7210;51.502;10.722;2022-09-28T02:27:40;7.70;99.90
14252;DHT22;7210;51.502;10.722;2022-09-28T02:30:13;7.60;99.90
14252;DHT22;7210;51.502;10.722;2022-09-28T02:32:45;7.70;99.90
14252;DHT22;7210;51.502;10.722;2022-09-28T02:35:17;7.70;99.90
14252;DHT22;7210;51.502;10.722;2022-09-28T02:37:46;7.70;99.90
14252;DHT22;7210;51.502;10.722;2022-09-28T02:40:17;7.70;99.90
14252;DHT22;7210;51.502;10.722;2022-09-28T02:42:52;7.80;99.90
14252;DHT22;7210;51.502;10.722;2022-09-28T02:45:35;7.80;99.90
14252;DHT22;7210;51.502;10.722;2022-09-28T02:48:33;7.80;99.90
14252;DHT22;7210;51.502;10.722;2022-09-28T02:51:19;7.80;99.90
14252;DHT22;7210;51.502;10.722;2022-09-28T02:54:18;7.90;99.90
14252;DHT22;7210;51.502;10.722;2022-09-28T02:57:10;7.90;99.90
14252;DHT22;7210;51.502;10.722;2022-09-28T02:59:48;7.90;99.90
14252;DHT22;7210;51.502;10.722;2022-09-28T03:02:29;7.90;99.90
14252;DHT22;7210;51.502;10.722;2022-09-28T03:05:10;7.90;99.90
14252;DHT22;7210;51.502;10.722;2022-09-28T03:07:45;7.90;99.90
14252;DHT22;7210;51.502;10.722;2022-09-28T03:10:24;7.90;99.90
14252;DHT22;7210;51.502;10.722;2022-09-28T03:12:56;7.90;99.90
14252;DHT22;7210;51.502;10.722;2022-09-28T03:15:27;7.90;99.90
14252;DHT22;7210;51.502;10.722;2022-09-28T03:17:59;7.90;99.90
14252;DHT22;7210;51.502;10.722;2022-09-28T03:20:31;7.90;99.90
14252;DHT22;7210;51.502;10.722;2022-09-28T03:22:59;8.00;99.90
14252;DHT22;7210;51.502;10.722;2022-09-28T03:25:27;7.90;99.90
14252;DHT22;7210;51.502;10.722;2022-09-28T03:27:54;7.90;99.90
14252;DHT22;7210;51.502;10.722;2022-09-28T03:30:21;8.00;99.90
14252;DHT22;7210;51.502;10.722;2022-09-28T03:32:56;8.00;99.90
14252;DHT22;7210;51.502;10.722;2022-09-28T03:35:25;8.00;99.90
14252;DHT22;7210;51.502;10.722;2022-09-28T03:37:54;8.00;99.90
14252;DHT22;7210;51.502;10.722;2022-09-28T03:40:25;8.00;99.90
14252;DHT22;7210;51.502;10.722;2022-09-28T03:42:52;8.00;99.90
14252;DHT22;7210;51.502;10.722;2022-09-28T03:45:19;8.00;99.90
14252;DHT22;7210;51.502;10.722;2022-09-28T03:47:51;7.90;99.90
14252;DHT22;7210;51.502;10.722;2022-09-28T03:50:18;8.00;99.90
14252;DHT22;7210;51.502;10.722;2022-09-28T03:52:47;8.00;99.90
14252;DHT22;7210;51.502;10.722;2022-09-28T03:55:16;8.00;99.90
14252;DHT22;7210;51.502;10.722;2022-09-28T03:57:43;7.90;99.90
14252;DHT22;7210;51.502;10.722;2022-09-28T04:00:11;7.90;99.90
14252;DHT22;7210;51.502;10.722;2022-09-28T04:02:41;7.90;99.90
14252;DHT22;7210;51.502;10.722;2022-09-28T04:05:08;7.90;99.90
14252;DHT22;7210;51.502;10.722;2022-09-28T04:07:37;7.80;99.90
14252;DHT22;7210;51.502;10.722;2022-09-28T04:10:04;7.80;99.90
14252;DHT22;7210;51.502;10.722;2022-09-28T04:12:34;7.80;99.90
14252;DHT22;7210;51.502;10.722;2022-09-28T04:15:01;7.80;99.90
14252;DHT22;7210;51.502;10.722;2022-09-28T04:17:28;7.80;99.90
14252;DHT22;7210;51.502;10.722;2022-09-28T04:19:56;7.80;99.90
14252;DHT22;7210;51.502;10.722;2022-09-28T04:22:39;7.80;99.90
14252;DHT22;7210;51.502;10.722;2022-09-28T04:25:08;7.80;99.90
14252;DHT22;7210;51.502;10.722;2022-09-28T04:27:37;7.70;99.90
14252;DHT22;7210;51.502;10.722;2022-09-28T04:30:22;7.70;99.90
14252;DHT22;7210;51.502;10.722;2022-09-28T04:32:49;7.60;99.90
14252;DHT22;7210;51.502;10.722;2022-09-28T04:35:16;7.60;99.90
14252;DHT22;7210;51.502;10.722;2022-09-28T04:37:45;7.60;99.90
14252;DHT22;7210;51.502;10.722;2022-09-28T04:40:12;7.60;99.90
14252;DHT22;7210;51.502;10.722;2022-09-28T04:42:41;7.60;99.90
14252;DHT22;7210;51.502;10.722;2022-09-28T04:45:09;7.60;99.90
14252;DHT22;7210;51.502;10.722;2022-09-28T04:47:45;7.70;99.90
14252;DHT22;7210;51.502;10.722;2022-09-28T04:50:35;7.60;99.90
14252;DHT22;7210;51.502;10.722;2022-09-28T04:53:07;7.60;99.90
14252;DHT22;7210;51.502;10.722;2022-09-28T04:55:34;7.60;99.90
14252;DHT22;7210;51.502;10.722;2022-09-28T04:58:04;7.60;99.90
14252;DHT22;7210;51.502;10.722;2022-09-28T05:00:31;7.50;99.90
14252;DHT22;7210;51.502;10.722;2022-09-28T05:03:09;7.50;99.90
14252;DHT22;7210;51.502;10.722;2022-09-28T05:05:55;7.50;99.90
14252;DHT22;7210;51.502;10.722;2022-09-28T05:08:48;7.50;99.90
14252;DHT22;7210;51.502;10.722;2022-09-28T05:11:16;7.50;99.90
14252;DHT22;7210;51.502;10.722;2022-09-28T05:13:46;7.50;99.90
14252;DHT22;7210;51.502;10.722;2022-09-28T05:16:16;7.50;99.90
14252;DHT22;7210;51.502;10.722;2022-09-28T05:19:08;7.40;99.90
14252;DHT22;7210;51.502;10.722;2022-09-28T05:21:39;7.40;99.90
14252;DHT22;7210;51.502;10.722;2022-09-28T05:24:09;7.50;99.90
14252;DHT22;7210;51.502;10.722;2022-09-28T05:26:37;7.40;99.90
14252;DHT22;7210;51.502;10.722;2022-09-28T05:29:10;7.40;99.90
14252;DHT22;7210;51.502;10.722;2022-09-28T05:32:03;7.50;99.90
14252;DHT22;7210;51.502;10.722;2022-09-28T05:34:48;7.40;99.90
14252;DHT22;7210;51.502;10.722;2022-09-28T05:37:22;7.40;99.90
14252;DHT22;7210;51.502;10.722;2022-09-28T05:39:50;7.40;99.90
14252;DHT22;7210;51.502;10.722;2022-09-28T05:42:17;7.50;99.90
14252;DHT22;7210;51.502;10.722;2022-09-28T05:44:45;7.50;99.90
14252;DHT22;7210;51.502;10.722;2022-09-28T05:47:12;7.50;99.90
14252;DHT22;7210;51.502;10.722;2022-09-28T05:49:39;7.40;99.90
14252;DHT22;7210;51.502;10.722;2022-09-28T05:52:07;7.40;99.90
14252;DHT22;7210;51.502;10.722;2022-09-28T05:54:37;7.50;99.90
14252;DHT22;7210;51.502;10.722;2022-09-28T05:57:04;7.50;99.90
14252;DHT22;7210;51.502;10.722;2022-09-28T05:59:32;7.50;99.90
14252;DHT22;7210;51.502;10.722;2022-09-28T06:02:03;7.50;99.90
14252;DHT22;7210;51.502;10.722;2022-09-28T06:04:33;7.50;99.90
14252;DHT22;7210;51.502;10.722;2022-09-28T06:07:00;7.50;99.90
14252;DHT22;7210;51.502;10.722;2022-09-28T06:09:27;7.50;99.90
14252;DHT22;7210;51.502;10.722;2022-09-28T06:12:11;7.60;99.90
14252;DHT22;7210;51.502;10.722;2022-09-28T06:14:42;7.60;99.90
14252;DHT22;7210;51.502;10.722;2022-09-28T06:17:12;7.60;99.90
14252;DHT22;7210;51.502;10.722;2022-09-28T06:19:39;7.60;99.90
14252;DHT22;7210;51.502;10.722;2022-09-28T06:22:23;7.60;99.90
14252;DHT22;7210;51.502;10.722;2022-09-28T06:24:58;7.60;99.90
14252;DHT22;7210;51.502;10.722;2022-09-28T06:27:25;7.60;99.90
14252;DHT22;7210;51.502;10.722;2022-09-28T06:29:52;7.60;99.90
14252;DHT22;7210;51.502;10.722;2022-09-28T06:32:20;7.70;99.90
14252;DHT22;7210;51.502;10.722;2022-09-28T06:34:49;7.70;99.90
14252;DHT22;7210;51.502;10.722;2022-09-28T06:37:16;7.70;99.90
14252;DHT22;7210;51.502;10.722;2022-09-28T06:39:43;7.80;99.90
14252;DHT22;7210;51.502;10.722;2022-09-28T06:42:15;7.80;99.90
14252;DHT22;7210;51.502;10.722;2022-09-28T06:45:01;7.80;99.90
14252;DHT22;7210;51.502;10.722;2022-09-28T06:47:43;7.90;99.90
14252;DHT22;7210;51.502;10.722;2022-09-28T06:50:24;7.90;99.90
14252;DHT22;7210;51.502;10.722;2022-09-28T06:53:17;7.90;99.90
14252;DHT22;7210;51.502;10.722;2022-09-28T06:55:49;7.90;99.90
14252;DHT22;7210;51.502;10.722;2022-09-28T06:58:17;7.90;99.90
14252;DHT22;7210;51.502;10.722;2022-09-28T07:00:46;7.90;99.90
14252;DHT22;7210;51.502;10.722;2022-09-28T07:03:19;8.00;99.90
14252;DHT22;7210;51.502;10.722;2022-09-28T07:06:09;8.00;99.90
14252;DHT22;7210;51.502;10.722;2022-09-28T07:08:56;8.00;99.90
14252;DHT22;7210;51.502;10.722;2022-09-28T07:11:37;8.00;99.90
14252;DHT22;7210;51.502;10.722;2022-09-28T07:14:23;8.00;99.90
14252;DHT22;7210;51.502;10.722;2022-09-28T07:16:50;8.10;99.90
14252;DHT22;7210;51.502;10.722;2022-09-28T07:19:21;8.10;99.90
14252;DHT22;7210;51.502;10.722;2022-09-28T07:21:50;8.00;99.90
14252;DHT22;7210;51.502;10.722;2022-09-28T07:24:18;8.00;99.90
14252;DHT22;7210;51.502;10.722;2022-09-28T07:27:04;8.00;99.90
14252;DHT22;7210;51.502;10.722;2022-09-28T07:29:51;8.00;99.90
14252;DHT22;7210;51.502;10.722;2022-09-28T07:32:32;8.00;99.90
14252;DHT22;7210;51.502;10.722;2022-09-28T07:35:19;8.00;99.90
14252;DHT22;7210;51.502;10.722;2022-09-28T07:37:56;8.10;99.90
14252;DHT22;7210;51.502;10.722;2022-09-28T07:40:25;8.10;99.90
14252;DHT22;7210;51.502;10.722;2022-09-28T07:43:10;8.10;99.90
14252;DHT22;7210;51.502;10.722;2022-09-28T07:45:38;8.10;99.90
14252;DHT22;7210;51.502;10.722;2022-09-28T07:48:08;8.10;99.90
14252;DHT22;7210;51.502;10.722;2022-09-28T07:50:57;8.20;99.90
14252;DHT22;7210;51.502;10.722;2022-09-28T07:53:34;8.20;99.90
14252;DHT22;7210;51.502;10.722;2022-09-28T07:56:27;8.10;99.90
14252;DHT22;7210;51.502;10.722;2022-09-28T07:59:07;8.20;99.90
14252;DHT22;7210;51.502;10.722;2022-09-28T08:01:37;8.30;99.90
14252;DHT22;7210;51.502;10.722;2022-09-28T08:04:06;8.30;99.90
14252;DHT22;7210;51.502;10.722;2022-09-28T08:06:40;8.30;99.90
14252;DHT22;7210;51.502;10.722;2022-09-28T08:09:11;8.40;99.90
14252;DHT22;7210;51.502;10.722;2022-09-28T08:11:57;8.30;99.90
14252;DHT22;7210;51.502;10.722;2022-09-28T08:14:44;8.30;99.90
14252;DHT22;7210;51.502;10.722;2022-09-28T08:17:30;8.30;99.90
14252;DHT22;7210;51.502;10.722;2022-09-28T08:19:59;8.10;99.90
14252;DHT22;7210;51.502;10.722;2022-09-28T08:22:45;8.20;99.90
14252;DHT22;7210;51.502;10.722;2022-09-28T08:25:12;8.30;99.90
14252;DHT22;7210;51.502;10.722;2022-09-28T08:27:40;8.30;99.90
14252;DHT22;7210;51.502;10.722;2022-09-28T08:30:08;8.20;99.90
14252;DHT22;7210;51.502;10.722;2022-09-28T08:32:36;8.30;99.90
14252;DHT22;7210;51.502;10.722;2022-09-28T08:35:22;8.50;99.90
14252;DHT22;7210;51.502;10.722;2022-09-28T08:38:30;8.50;99.90
14252;DHT22;7210;51.502;10.722;2022-09-28T08:41:34;8.50;99.90
14252;DHT22;7210;51.502;10.722;2022-09-28T08:44:19;8.90;99.90
14252;DHT22;7210;51.502;10.722;2022-09-28T08:47:15;9.00;99.90
14252;DHT22;7210;51.502;10.722;2022-09-28T08:50:20;9.10;99.90
14252;DHT22;7210;51.502;10.722;2022-09-28T08:53:34;9.10;99.90
14252;DHT22;7210;51.502;10.722;2022-09-28T08:56:41;9.10;99.90
14252;DHT22;7210;51.502;10.722;2022-09-28T08:59:14;9.40;99.90
14252;DHT22;7210;51.502;10.722;2022-09-28T09:01:52;9.40;99.90
14252;DHT22;7210;51.502;10.722;2022-09-28T09:04:24;9.60;99.90
14252;DHT22;7210;51.502;10.722;2022-09-28T09:07:29;9.50;99.90
14252;DHT22;7210;51.502;10.722;2022-09-28T09:10:36;9.50;99.90
14252;DHT22;7210;51.502;10.722;2022-09-28T09:13:41;9.60;99.90
14252;DHT22;7210;51.502;10.722;2022-09-28T09:16:31;9.60;99.90
14252;DHT22;7210;51.502;10.722;2022-09-28T09:19:16;9.60;99.90
14252;DHT22;7210;51.502;10.722;2022-09-28T09:22:35;9.60;99.90
14252;DHT22;7210;51.502;10.722;2022-09-28T09:25:17;9.50;99.90
14252;DHT22;7210;51.502;10.722;2022-09-28T09:28:01;9.40;99.90
14252;DHT22;7210;51.502;10.722;2022-09-28T09:30:51;9.30;99.90
14252;DHT22;7210;51.502;10.722;2022-09-28T09:33:54;9.20;99.90
14252;DHT22;7210;51.502;10.722;2022-09-28T09:36:58;9.10;99.90
14252;DHT22;7210;51.502;10.722;2022-09-28T09:40:00;9.00;99.90
14252;DHT22;7210;51.502;10.722;2022-09-28T09:43:35;8.80;99.90
14252;DHT22;7210;51.502;10.722;2022-09-28T09:46:40;8.90;99.90
14252;DHT22;7210;51.502;10.722;2022-09-28T09:49:23;9.10;99.90
14252;DHT22;7210;51.502;10.722;2022-09-28T09:51:58;9.40;99.90
14252;DHT22;7210;51.502;10.722;2022-09-28T09:54:34;9.60;99.90
14252;DHT22;7210;51.502;10.722;2022-09-28T09:57:10;9.70;99.90
14252;DHT22;7210;51.502;10.722;2022-09-28T09:59:48;9.70;99.90
14252;DHT22;7210;51.502;10.722;2022-09-28T10:02:28;9.80;99.90
14252;DHT22;7210;51.502;10.722;2022-09-28T10:05:20;9.80;99.90
14252;DHT22;7210;51.502;10.722;2022-09-28T10:07:54;9.90;99.90
14252;DHT22;7210;51.502;10.722;2022-09-28T10:10:33;9.90;99.90
14252;DHT22;7210;51.502;10.722;2022-09-28T10:13:07;9.90;99.90
14252;DHT22;7210;51.502;10.722;2022-09-28T10:15:39;9.90;99.90
14252;DHT22;7210;51.502;10.722;2022-09-28T10:18:15;9.90;99.90
14252;DHT22;7210;51.502;10.722;2022-09-28T10:21:04;10.10;99.90
14252;DHT22;7210;51.502;10.722;2022-09-28T10:23:56;10.20;99.90
14252;DHT22;7210;51.502;10.722;2022-09-28T10:26:32;10.20;99.90
14252;DHT22;7210;51.502;10.722;2022-09-28T10:29:09;10.10;99.90
14252;DHT22;7210;51.502;10.722;2022-09-28T10:31:42;10.00;99.90
14252;DHT22;7210;51.502;10.722;2022-09-28T10:34:25;9.90;99.90
14252;DHT22;7210;51.502;10.722;2022-09-28T10:36:57;9.90;99.90
14252;DHT22;7210;51.502;10.722;2022-09-28T10:39:35;9.70;99.90
14252;DHT22;7210;51.502;10.722;2022-09-28T10:42:07;9.60;99.90
14252;DHT22;7210;51.502;10.722;2022-09-28T10:44:58;9.50;99.90
14252;DHT22;7210;51.502;10.722;2022-09-28T10:47:42;9.40;99.90
14252;DHT22;7210;51.502;10.722;2022-09-28T10:50:19;9.30;99.90
14252;DHT22;7210;51.502;10.722;2022-09-28T10:53:15;9.30;99.90
14252;DHT22;7210;51.502;10.722;2022-09-28T10:56:19;9.30;99.90
14252;DHT22;7210;51.502;10.722;2022-09-28T10:58:52;9.20;99.90
14252;DHT22;7210;51.502;10.722;2022-09-28T11:01:34;9.30;99.90
14252;DHT22;7210;51.502;10.722;2022-09-28T11:04:05;9.30;99.90
14252;DHT22;7210;51.502;10.722;2022-09-28T11:06:37;9.30;99.90
14252;DHT22;7210;51.502;10.722;2022-09-28T11:09:23;9.30;99.90
14252;DHT22;7210;51.502;10.722;2022-09-28T11:11:57;9.40;99.90
14252;DHT22;7210;51.502;10.722;2022-09-28T11:14:31;9.50;99.90
14252;DHT22;7210;51.502;10.722;2022-09-28T11:17:14;9.60;99.90
14252;DHT22;7210;51.502;10.722;2022-09-28T11:19:46;9.60;99.90
14252;DHT22;7210;51.502;10.722;2022-09-28T11:22:24;9.70;99.90
14252;DHT22;7210;51.502;10.722;2022-09-28T11:25:18;9.80;99.90
14252;DHT22;7210;51.502;10.722;2022-09-28T11:27:59;9.80;99.90
14252;DHT22;7210;51.502;10.722;2022-09-28T11:30:31;9.80;99.90
14252;DHT22;7210;51.502;10.722;2022-09-28T11:33:37;9.80;99.90
14252;DHT22;7210;51.502;10.722;2022-09-28T11:36:29;9.70;99.90
14252;DHT22;7210;51.502;10.722;2022-09-28T11:39:10;9.80;99.90
14252;DHT22;7210;51.502;10.722;2022-09-28T11:42:00;9.70;99.90
14252;DHT22;7210;51.502;10.722;2022-09-28T11:44:41;9.80;99.90
14252;DHT22;7210;51.502;10.722;2022-09-28T11:47:31;9.80;99.90
14252;DHT22;7210;51.502;10.722;2022-09-28T11:50:35;9.90;99.90
14252;DHT22;7210;51.502;10.722;2022-09-28T11:53:19;10.10;99.90
14252;DHT22;7210;51.502;10.722;2022-09-28T11:56:04;10.30;99.90
14252;DHT22;7210;51.502;10.722;2022-09-28T11:58:43;10.40;99.90
14252;DHT22;7210;51.502;10.722;2022-09-28T12:01:22;10.60;99.90
14252;DHT22;7210;51.502;10.722;2022-09-28T12:04:18;10.70;99.90
14252;DHT22;7210;51.502;10.722;2022-09-28T12:06:54;10.70;99.90
14252;DHT22;7210;51.502;10.722;2022-09-28T12:09:33;10.80;1.00
14252;DHT22;7210;51.502;10.722;2022-09-28T12:12:19;10.90;1.00
14252;DHT22;7210;51.502;10.722;2022-09-28T12:14:54;10.90;1.00
14252;DHT22;7210;51.502;10.722;2022-09-28T12:17:30;11.00;1.00
14252;DHT22;7210;51.502;10.722;2022-09-28T12:20:08;10.90;1.00
14252;DHT22;7210;51.502;10.722;2022-09-28T12:22:45;11.00;1.00
14252;DHT22;7210;51.502;10.722;2022-09-28T12:25:22;11.00;1.00
14252;DHT22;7210;51.502;10.722;2022-09-28T12:27:54;11.10;1.00
14252;DHT22;7210;51.502;10.722;2022-09-28T12:30:24;11.00;1.00
14252;DHT22;7210;51.502;10.722;2022-09-28T12:33:00;11.10;1.00
14252;DHT22;7210;51.502;10.722;2022-09-28T12:35:43;11.10;1.00
14252;DHT22;7210;51.502;10.722;2022-09-28T12:38:37;11.10;1.00
14252;DHT22;7210;51.502;10.722;2022-09-28T12:41:26;11.10;1.00
14252;DHT22;7210;51.502;10.722;2022-09-28T12:44:17;11.10;1.00
14252;DHT22;7210;51.502;10.722;2022-09-28T12:47:08;11.20;1.00
14252;DHT22;7210;51.502;10.722;2022-09-28T12:50:03;11.20;1.00
14252;DHT22;7210;51.502;10.722;2022-09-28T12:52:48;11.30;1.00
14252;DHT22;7210;51.502;10.722;2022-09-28T12:55:37;11.40;1.00
14252;DHT22;7210;51.502;10.722;2022-09-28T12:58:35;11.40;1.00
14252;DHT22;7210;51.502;10.722;2022-09-28T13:01:33;11.40;1.00
14252;DHT22;7210;51.502;10.722;2022-09-28T13:04:23;11.30;1.00
14252;DHT22;7210;51.502;10.722;2022-09-28T13:07:13;11.20;1.00
14252;DHT22;7210;51.502;10.722;2022-09-28T13:09:53;11.10;1.00
14252;DHT22;7210;51.502;10.722;2022-09-28T13:12:37;11.10;1.00
14252;DHT22;7210;51.502;10.722;2022-09-28T13:15:31;11.10;1.00
14252;DHT22;7210;51.502;10.722;2022-09-28T13:18:11;11.00;1.00
14252;DHT22;7210;51.502;10.722;2022-09-28T13:20:56;11.00;1.00
14252;DHT22;7210;51.502;10.722;2022-09-28T13:23:36;10.90;1.00
14252;DHT22;7210;51.502;10.722;2022-09-28T13:26:14;10.90;1.00
14252;DHT22;7210;51.502;10.722;2022-09-28T13:28:47;10.80;1.00
14252;DHT22;7210;51.502;10.722;2022-09-28T13:31:20;10.80;1.00
14252;DHT22;7210;51.502;10.722;2022-09-28T13:33:55;10.80;1.00
14252;DHT22;7210;51.502;10.722;2022-09-28T13:36:38;10.70;1.00
14252;DHT22;7210;51.502;10.722;2022-09-28T13:39:33;10.60;1.00
14252;DHT22;7210;51.502;10.722;2022-09-28T13:42:04;10.50;1.00
14252;DHT22;7210;51.502;10.722;2022-09-28T13:44:56;10.40;1.00
14252;DHT22;7210;51.502;10.722;2022-09-28T13:48:03;10.30;99.90
14252;DHT22;7210;51.502;10.722;2022-09-28T13:50:56;10.20;99.90
14252;DHT22;7210;51.502;10.722;2022-09-28T13:53:53;10.00;99.90
14252;DHT22;7210;51.502;10.722;2022-09-28T13:56:36;9.80;99.90
14252;DHT22;7210;51.502;10.722;2022-09-28T13:59:17;9.60;99.90
14252;DHT22;7210;51.502;10.722;2022-09-28T14:01:53;9.60;99.90
14252;DHT22;7210;51.502;10.722;2022-09-28T14:04:52;9.60;99.90
14252;DHT22;7210;51.502;10.722;2022-09-28T14:07:24;9.70;99.90
14252;DHT22;7210;51.502;10.722;2022-09-28T14:10:15;9.60;99.90
14252;DHT22;7210;51.502;10.722;2022-09-28T14:12:47;9.60;99.90
14252;DHT22;7210;51.502;10.722;2022-09-28T14:15:38;9.60;99.90
14252;DHT22;7210;51.502;10.722;2022-09-28T14:18:29;9.60;99.90
14252;DHT22;7210;51.502;10.722;2022-09-28T14:21:10;9.70;99.90
14252;DHT22;7210;51.502;10.722;2022-09-28T14:24:07;9.70;99.90
14252;DHT22;7210;51.502;10.722;2022-09-28T14:27:11;9.70;99.90
14252;DHT22;7210;51.502;10.722;2022-09-28T14:30:15;9.70;99.90
14252;DHT22;7210;51.502;10.722;2022-09-28T14:32:54;9.70;99.90
14252;DHT22;7210;51.502;10.722;2022-09-28T14:35:30;9.80;99.90
14252;DHT22;7210;51.502;10.722;2022-09-28T14:38:13;9.90;99.90
14252;DHT22;7210;51.502;10.722;2022-09-28T14:41:04;9.90;99.90
14252;DHT22;7210;51.502;10.722;2022-09-28T14:44:02;9.90;99.90
14252;DHT22;7210;51.502;10.722;2022-09-28T14:46:35;9.90;99.90
14252;DHT22;7210;51.502;10.722;2022-09-28T14:52:16;9.80;99.90
14252;DHT22;7210;51.502;10.722;2022-09-28T14:55:10;9.80;99.90
14252;DHT22;7210;51.502;10.722;2022-09-28T14:57:40;9.70;99.90
14252;DHT22;7210;51.502;10.722;2022-09-28T15:00:17;9.70;99.90
14252;DHT22;7210;51.502;10.722;2022-09-28T15:02:48;9.70;99.90
14252;DHT22;7210;51.502;10.722;2022-09-28T15:05:21;9.80;99.90
14252;DHT22;7210;51.502;10.722;2022-09-28T15:07:53;9.90;99.90
14252;DHT22;7210;51.502;10.722;2022-09-28T15:10:25;10.00;99.90
14252;DHT22;7210;51.502;10.722;2022-09-28T15:12:57;10.10;99.90
14252;DHT22;7210;51.502;10.722;2022-09-28T15:15:30;10.10;99.90
14252;DHT22;7210;51.502;10.722;2022-09-28T15:18:10;10.10;99.90
14252;DHT22;7210;51.502;10.722;2022-09-28T15:21:07;10.20;99.90
14252;DHT22;7210;51.502;10.722;2022-09-28T15:23:36;10.10;99.90
14252;DHT22;7210;51.502;10.722;2022-09-28T15:26:18;10.10;99.90
14252;DHT22;7210;51.502;10.722;2022-09-28T15:28:47;10.00;99.90
14252;DHT22;7210;51.502;10.722;2022-09-28T15:31:17;10.00;99.90
14252;DHT22;7210;51.502;10.722;2022-09-28T15:33:46;9.90;99.90
14252;DHT22;7210;51.502;10.722;2022-09-28T15:36:33;9.90;99.90
14252;DHT22;7210;51.502;10.722;2022-09-28T15:39:05;10.00;99.90
14252;DHT22;7210;51.502;10.722;2022-09-28T15:41:41;10.00;99.90
14252;DHT22;7210;51.502;10.722;2022-09-28T15:44:27;10.00;99.90
14252;DHT22;7210;51.502;10.722;2022-09-28T15:47:13;10.00;99.90
14252;DHT22;7210;51.502;10.722;2022-09-28T15:49:45;9.80;99.90
14252;DHT22;7210;51.502;10.722;2022-09-28T15:52:26;9.80;99.90
14252;DHT22;7210;51.502;10.722;2022-09-28T15:55:02;9.80;99.90
14252;DHT22;7210;51.502;10.722;2022-09-28T15:57:39;9.70;99.90
14252;DHT22;7210;51.502;10.722;2022-09-28T16:00:23;9.80;99.90
14252;DHT22;7210;51.502;10.722;2022-09-28T16:02:57;9.80;99.90
14252;DHT22;7210;51.502;10.722;2022-09-28T16:05:40;9.80;99.90
14252;DHT22;7210;51.502;10.722;2022-09-28T16:08:14;9.70;99.90
14252;DHT22;7210;51.502;10.722;2022-09-28T16:11:08;9.60;99.90
14252;DHT22;7210;51.502;10.722;2022-09-28T16:13:56;9.60;99.90
14252;DHT22;7210;51.502;10.722;2022-09-28T16:16:32;9.50;99.90
14252;DHT22;7210;51.502;10.722;2022-09-28T16:19:04;9.40;99.90
14252;DHT22;7210;51.502;10.722;2022-09-28T16:21:43;9.30;99.90
14252;DHT22;7210;51.502;10.722;2022-09-28T16:24:20;9.30;99.90
14252;DHT22;7210;51.502;10.722;2022-09-28T16:26:54;9.20;99.90
14252;DHT22;7210;51.502;10.722;2022-09-28T16:29:31;9.10;99.90
14252;DHT22;7210;51.502;10.722;2022-09-28T16:35:25;8.90;99.90
14252;DHT22;7210;51.502;10.722;2022-09-28T16:38:02;8.80;99.90
14252;DHT22;7210;51.502;10.722;2022-09-28T16:40:38;8.70;99.90
14252;DHT22;7210;51.502;10.722;2022-09-28T16:43:09;8.70;99.90
14252;DHT22;7210;51.502;10.722;2022-09-28T16:45:46;8.60;99.90
14252;DHT22;7210;51.502;10.722;2022-09-28T16:48:14;8.60;99.90
14252;DHT22;7210;51.502;10.722;2022-09-28T16:50:43;8.60;99.90
14252;DHT22;7210;51.502;10.722;2022-09-28T16:53:13;8.50;99.90
14252;DHT22;7210;51.502;10.722;2022-09-28T16:55:59;8.50;99.90
14252;DHT22;7210;51.502;10.722;2022-09-28T16:58:27;8.50;99.90
14252;DHT22;7210;51.502;10.722;2022-09-28T17:00:57;8.40;99.90
14252;DHT22;7210;51.502;10.722;2022-09-28T17:03:26;8.40;99.90
14252;DHT22;7210;51.502;10.722;2022-09-28T17:05:54;8.40;99.90
14252;DHT22;7210;51.502;10.722;2022-09-28T17:08:23;8.40;99.90